首页
METAR-TAF:

METAR-TAF

机场 :

Quaqtaq, 魁北克, 加拿大

纬度: 61-03N, 经度: 069-38W, 海拔: 30米

当前天气观测

该预报发布于55分钟前的20:00 UTC
风速3节,风向
温度 -13°C
湿度 78%
气压 1008 hPa
能見度: 24.1公里
少量云层高于5300英尺
散云层高于14000英尺

METAR: CYHA 132000Z 17003KT 15SM FEW053 SCT140 M13/M16 A2976 RMK SC1AS2 SLP083

时间: 15:55 (20:55 UTC)

预报

该预报发布于30小时和13分钟前的14:42 UTC
预报有效从12日的 15点(UTC)到 12日的 22点(UTC)
风速12节,风向西转西南
能見度: 10公里
散云层高于8000英尺
多云层高于15000英尺
从 12日的 1800点(UTC)
风速15节,风向西,有时为25节阵风
能見度: 10公里
多云层高于3000英尺
短暂存在
从 12日的 18点(UTC)到 12日的 22点(UTC)
能見度: 4.8公里
多云层高于2000英尺
小雪, 高吹雪

TAF: CYHA 121442Z 1215/1222 24012KT P6SM SCT080 BKN150 FM121800 26015G25KT P6SM BKN030 TEMPO 1218/1222 3SM -SN BLSN BKN020 RMK NXT FCST WILL BE ISSUED AT 131445Z

超过4000个机场的气象观测和天气预报(METAR&TAF报告)。

可查询的气象台以黄色和红色小点在地图上表示。

将鼠标移到小点上方,可查看气象台名称。

然后点击查看天气观测和预报。

如需切换地图:点击带黑十字的绿色按钮放大地图;点击带横线的绿色按钮缩小地图;或者点击绿色箭头查看邻近地区的地图。


METAR-TAF: